sensor_id;sensor_type;location;lat;lon;timestamp;pressure;altitude;pressure_sealevel;temperature;humidity
11621;BME280;5866;49.094;11.900;2022-12-07T00:01:04;96121.94;;;3.71;100.00
11621;BME280;5866;49.094;11.900;2022-12-07T00:03:32;96121.84;;;4.04;100.00
11621;BME280;5866;49.094;11.900;2022-12-07T00:06:01;96118.88;;;4.30;100.00
11621;BME280;5866;49.094;11.900;2022-12-07T00:08:29;96115.13;;;4.12;100.00
11621;BME280;5866;49.094;11.900;2022-12-07T00:11:01;96119.34;;;3.60;100.00
11621;BME280;5866;49.094;11.900;2022-12-07T00:13:29;96122.22;;;3.46;100.00
11621;BME280;5866;49.094;11.900;2022-12-07T00:16:01;96122.03;;;3.05;100.00
11621;BME280;5866;49.094;11.900;2022-12-07T00:18:29;96122.44;;;3.54;100.00
11621;BME280;5866;49.094;11.900;2022-12-07T00:20:59;96108.66;;;3.95;100.00
11621;BME280;5866;49.094;11.900;2022-12-07T00:23:27;96107.72;;;4.17;100.00
11621;BME280;5866;49.094;11.900;2022-12-07T00:25:55;96108.28;;;3.99;100.00
11621;BME280;5866;49.094;11.900;2022-12-07T00:28:23;96096.22;;;3.54;100.00
11621;BME280;5866;49.094;11.900;2022-12-07T00:30:50;96102.22;;;3.34;100.00
11621;BME280;5866;49.094;11.900;2022-12-07T00:33:19;96103.50;;;3.51;100.00
11621;BME280;5866;49.094;11.900;2022-12-07T00:35:46;96104.50;;;3.39;100.00
11621;BME280;5866;49.094;11.900;2022-12-07T00:38:14;96115.94;;;2.71;100.00
11621;BME280;5866;49.094;11.900;2022-12-07T00:40:41;96116.41;;;3.20;100.00
11621;BME280;5866;49.094;11.900;2022-12-07T00:43:09;96107.75;;;3.20;100.00
11621;BME280;5866;49.094;11.900;2022-12-07T00:45:37;96113.69;;;3.00;100.00
11621;BME280;5866;49.094;11.900;2022-12-07T00:48:04;96113.78;;;2.87;100.00
11621;BME280;5866;49.094;11.900;2022-12-07T00:50:33;96107.38;;;2.80;100.00
11621;BME280;5866;49.094;11.900;2022-12-07T00:53:01;96117.00;;;2.80;100.00
11621;BME280;5866;49.094;11.900;2022-12-07T00:55:32;96113.78;;;3.43;100.00
11621;BME280;5866;49.094;11.900;2022-12-07T00:58:00;96105.59;;;4.11;100.00
11621;BME280;5866;49.094;11.900;2022-12-07T01:00:27;96098.00;;;4.49;100.00
11621;BME280;5866;49.094;11.900;2022-12-07T01:02:55;96100.13;;;4.34;100.00
11621;BME280;5866;49.094;11.900;2022-12-07T01:05:22;96098.53;;;3.90;100.00
11621;BME280;5866;49.094;11.900;2022-12-07T01:07:51;96111.25;;;3.63;100.00
11621;BME280;5866;49.094;11.900;2022-12-07T01:10:19;96115.19;;;3.58;100.00
11621;BME280;5866;49.094;11.900;2022-12-07T01:12:46;96108.13;;;4.33;100.00
11621;BME280;5866;49.094;11.900;2022-12-07T01:15:14;96105.38;;;4.02;100.00
11621;BME280;5866;49.094;11.900;2022-12-07T01:17:42;96115.06;;;3.48;100.00
11621;BME280;5866;49.094;11.900;2022-12-07T01:20:10;96112.22;;;3.29;100.00
11621;BME280;5866;49.094;11.900;2022-12-07T01:22:39;96115.47;;;3.10;100.00
11621;BME280;5866;49.094;11.900;2022-12-07T01:25:09;96116.50;;;4.06;100.00
11621;BME280;5866;49.094;11.900;2022-12-07T01:27:37;96130.13;;;3.13;100.00
11621;BME280;5866;49.094;11.900;2022-12-07T01:30:06;96128.66;;;2.65;100.00
11621;BME280;5866;49.094;11.900;2022-12-07T01:32:34;96125.47;;;3.16;100.00
11621;BME280;5866;49.094;11.900;2022-12-07T01:35:02;96128.22;;;2.93;100.00
11621;BME280;5866;49.094;11.900;2022-12-07T01:37:34;96123.78;;;2.71;100.00
11621;BME280;5866;49.094;11.900;2022-12-07T01:40:02;96116.31;;;3.11;100.00
11621;BME280;5866;49.094;11.900;2022-12-07T01:42:31;96119.28;;;2.84;100.00
11621;BME280;5866;49.094;11.900;2022-12-07T01:48:14;96130.09;;;2.69;100.00
11621;BME280;5866;49.094;11.900;2022-12-07T01:50:45;96128.16;;;2.49;100.00
11621;BME280;5866;49.094;11.900;2022-12-07T01:53:16;96121.75;;;2.75;100.00
11621;BME280;5866;49.094;11.900;2022-12-07T01:55:47;96121.28;;;2.70;100.00
11621;BME280;5866;49.094;11.900;2022-12-07T01:58:18;96112.19;;;2.52;100.00
11621;BME280;5866;49.094;11.900;2022-12-07T02:00:47;96122.13;;;2.92;100.00
11621;BME280;5866;49.094;11.900;2022-12-07T02:03:18;96113.91;;;2.86;100.00
11621;BME280;5866;49.094;11.900;2022-12-07T02:05:48;96122.97;;;3.04;100.00
11621;BME280;5866;49.094;11.900;2022-12-07T02:08:16;96119.13;;;2.75;100.00
11621;BME280;5866;49.094;11.900;2022-12-07T02:10:44;96117.50;;;3.18;100.00
11621;BME280;5866;49.094;11.900;2022-12-07T02:13:14;96110.59;;;3.28;100.00
11621;BME280;5866;49.094;11.900;2022-12-07T02:15:54;96106.72;;;3.54;100.00
11621;BME280;5866;49.094;11.900;2022-12-07T02:18:31;96103.69;;;3.16;100.00
11621;BME280;5866;49.094;11.900;2022-12-07T02:21:08;96110.97;;;3.01;100.00
11621;BME280;5866;49.094;11.900;2022-12-07T02:23:45;96102.19;;;3.56;100.00
11621;BME280;5866;49.094;11.900;2022-12-07T02:26:35;96099.16;;;3.07;100.00
11621;BME280;5866;49.094;11.900;2022-12-07T02:29:16;96106.41;;;2.92;100.00
11621;BME280;5866;49.094;11.900;2022-12-07T02:31:52;96097.09;;;3.44;100.00
11621;BME280;5866;49.094;11.900;2022-12-07T02:34:32;96101.16;;;3.14;100.00
11621;BME280;5866;49.094;11.900;2022-12-07T02:37:09;96093.63;;;3.86;100.00
11621;BME280;5866;49.094;11.900;2022-12-07T02:39:42;96099.03;;;4.37;100.00
11621;BME280;5866;49.094;11.900;2022-12-07T02:42:14;96093.28;;;4.43;100.00
11621;BME280;5866;49.094;11.900;2022-12-07T02:44:45;96095.91;;;4.43;100.00
11621;BME280;5866;49.094;11.900;2022-12-07T02:47:16;96093.75;;;3.95;100.00
11621;BME280;5866;49.094;11.900;2022-12-07T02:49:46;96099.31;;;3.59;100.00
11621;BME280;5866;49.094;11.900;2022-12-07T02:52:13;96098.84;;;3.65;100.00
11621;BME280;5866;49.094;11.900;2022-12-07T02:54:41;96097.25;;;3.20;100.00
11621;BME280;5866;49.094;11.900;2022-12-07T02:57:21;96097.25;;;3.09;100.00
11621;BME280;5866;49.094;11.900;2022-12-07T03:00:00;96096.41;;;3.19;100.00
11621;BME280;5866;49.094;11.900;2022-12-07T03:02:38;96092.84;;;3.74;100.00
11621;BME280;5866;49.094;11.900;2022-12-07T03:08:04;96096.19;;;3.00;100.00
11621;BME280;5866;49.094;11.900;2022-12-07T03:10:41;96088.44;;;2.77;100.00
11621;BME280;5866;49.094;11.900;2022-12-07T03:13:22;96099.16;;;2.85;100.00
11621;BME280;5866;49.094;11.900;2022-12-07T03:15:56;96094.03;;;2.61;100.00
11621;BME280;5866;49.094;11.900;2022-12-07T03:18:29;96094.66;;;2.87;100.00
11621;BME280;5866;49.094;11.900;2022-12-07T03:21:02;96090.34;;;2.97;100.00
11621;BME280;5866;49.094;11.900;2022-12-07T03:23:34;96089.72;;;2.49;100.00
11621;BME280;5866;49.094;11.900;2022-12-07T03:26:04;96090.81;;;2.69;100.00
11621;BME280;5866;49.094;11.900;2022-12-07T03:28:36;96080.78;;;3.29;100.00
11621;BME280;5866;49.094;11.900;2022-12-07T03:31:12;96087.00;;;3.06;100.00
11621;BME280;5866;49.094;11.900;2022-12-07T03:33:46;96081.53;;;3.09;100.00
11621;BME280;5866;49.094;11.900;2022-12-07T03:36:20;96076.63;;;3.27;100.00
11621;BME280;5866;49.094;11.900;2022-12-07T03:38:53;96064.56;;;3.46;100.00
11621;BME280;5866;49.094;11.900;2022-12-07T03:41:26;96061.81;;;4.11;100.00
11621;BME280;5866;49.094;11.900;2022-12-07T03:43:54;96066.66;;;3.63;100.00
11621;BME280;5866;49.094;11.900;2022-12-07T03:46:31;96068.56;;;3.61;100.00
11621;BME280;5866;49.094;11.900;2022-12-07T03:49:07;96072.91;;;3.29;100.00
11621;BME280;5866;49.094;11.900;2022-12-07T03:51:41;96073.19;;;3.26;100.00
11621;BME280;5866;49.094;11.900;2022-12-07T03:54:14;96081.97;;;3.25;100.00
11621;BME280;5866;49.094;11.900;2022-12-07T03:56:44;96075.38;;;3.53;100.00
11621;BME280;5866;49.094;11.900;2022-12-07T03:59:14;96077.63;;;4.00;100.00
11621;BME280;5866;49.094;11.900;2022-12-07T04:01:43;96074.44;;;4.58;100.00
11621;BME280;5866;49.094;11.900;2022-12-07T04:04:11;96068.03;;;4.31;100.00
11621;BME280;5866;49.094;11.900;2022-12-07T04:06:39;96076.28;;;4.47;100.00
11621;BME280;5866;49.094;11.900;2022-12-07T04:09:06;96073.66;;;4.06;100.00
11621;BME280;5866;49.094;11.900;2022-12-07T04:11:34;96070.72;;;4.40;100.00
11621;BME280;5866;49.094;11.900;2022-12-07T04:14:01;96074.16;;;4.61;100.00
11621;BME280;5866;49.094;11.900;2022-12-07T04:16:50;96065.03;;;5.16;100.00
11621;BME280;5866;49.094;11.900;2022-12-07T04:19:20;96067.97;;;5.32;100.00
11621;BME280;5866;49.094;11.900;2022-12-07T04:21:48;96074.41;;;4.79;100.00
11621;BME280;5866;49.094;11.900;2022-12-07T04:24:16;96077.63;;;4.00;100.00
11621;BME280;5866;49.094;11.900;2022-12-07T04:26:44;96074.41;;;3.96;100.00
11621;BME280;5866;49.094;11.900;2022-12-07T04:29:13;96064.25;;;4.03;100.00
11621;BME280;5866;49.094;11.900;2022-12-07T04:31:42;96065.31;;;4.00;100.00
11621;BME280;5866;49.094;11.900;2022-12-07T04:34:11;96064.75;;;4.38;100.00
11621;BME280;5866;49.094;11.900;2022-12-07T04:36:40;96068.16;;;4.50;100.00
11621;BME280;5866;49.094;11.900;2022-12-07T04:39:09;96051.63;;;4.18;100.00
11621;BME280;5866;49.094;11.900;2022-12-07T04:41:41;96060.56;;;3.63;100.00
11621;BME280;5866;49.094;11.900;2022-12-07T04:44:08;96057.81;;;3.33;100.00
11621;BME280;5866;49.094;11.900;2022-12-07T04:46:36;96052.50;;;3.55;100.00
11621;BME280;5866;49.094;11.900;2022-12-07T04:49:03;96048.59;;;4.13;100.00
11621;BME280;5866;49.094;11.900;2022-12-07T04:51:32;96044.22;;;4.23;100.00
11621;BME280;5866;49.094;11.900;2022-12-07T04:54:00;96032.41;;;3.96;100.00
11621;BME280;5866;49.094;11.900;2022-12-07T04:56:27;96036.91;;;3.53;100.00
11621;BME280;5866;49.094;11.900;2022-12-07T04:58:55;96028.78;;;3.02;100.00
11621;BME280;5866;49.094;11.900;2022-12-07T05:01:23;96034.13;;;3.12;100.00
11621;BME280;5866;49.094;11.900;2022-12-07T05:03:51;96035.47;;;2.84;100.00
11621;BME280;5866;49.094;11.900;2022-12-07T05:06:19;96021.06;;;2.68;100.00
11621;BME280;5866;49.094;11.900;2022-12-07T05:08:48;96030.94;;;2.75;100.00
11621;BME280;5866;49.094;11.900;2022-12-07T05:11:16;96022.50;;;2.72;100.00
11621;BME280;5866;49.094;11.900;2022-12-07T05:13:57;96020.59;;;2.63;100.00
11621;BME280;5866;49.094;11.900;2022-12-07T05:16:25;96021.78;;;2.59;100.00
11621;BME280;5866;49.094;11.900;2022-12-07T05:18:53;96020.34;;;2.88;100.00
11621;BME280;5866;49.094;11.900;2022-12-07T05:21:21;96025.81;;;2.63;100.00
11621;BME280;5866;49.094;11.900;2022-12-07T05:23:50;96018.44;;;2.79;100.00
11621;BME280;5866;49.094;11.900;2022-12-07T05:26:17;96019.66;;;2.64;100.00
11621;BME280;5866;49.094;11.900;2022-12-07T05:28:45;96019.97;;;2.81;100.00
11621;BME280;5866;49.094;11.900;2022-12-07T05:31:12;96027.09;;;2.13;100.00
11621;BME280;5866;49.094;11.900;2022-12-07T05:33:40;96029.34;;;2.28;100.00
11621;BME280;5866;49.094;11.900;2022-12-07T05:36:07;96025.09;;;1.93;100.00
11621;BME280;5866;49.094;11.900;2022-12-07T05:38:35;96032.78;;;1.72;100.00
11621;BME280;5866;49.094;11.900;2022-12-07T05:41:06;96038.03;;;1.83;100.00
11621;BME280;5866;49.094;11.900;2022-12-07T05:43:33;96046.09;;;1.80;100.00
11621;BME280;5866;49.094;11.900;2022-12-07T05:46:00;96047.03;;;1.68;100.00
11621;BME280;5866;49.094;11.900;2022-12-07T05:48:27;96054.09;;;1.55;100.00
11621;BME280;5866;49.094;11.900;2022-12-07T05:50:55;96058.94;;;1.48;100.00
11621;BME280;5866;49.094;11.900;2022-12-07T05:53:23;96061.94;;;1.55;100.00
11621;BME280;5866;49.094;11.900;2022-12-07T05:55:51;96073.09;;;1.33;100.00
11621;BME280;5866;49.094;11.900;2022-12-07T05:58:20;96072.63;;;1.16;100.00
11621;BME280;5866;49.094;11.900;2022-12-07T06:01:05;96069.28;;;1.14;100.00
11621;BME280;5866;49.094;11.900;2022-12-07T06:03:33;96075.38;;;1.02;100.00
11621;BME280;5866;49.094;11.900;2022-12-07T06:06:00;96080.47;;;1.16;100.00
11621;BME280;5866;49.094;11.900;2022-12-07T06:08:28;96082.88;;;1.19;100.00
11621;BME280;5866;49.094;11.900;2022-12-07T06:10:56;96081.28;;;1.29;100.00
11621;BME280;5866;49.094;11.900;2022-12-07T06:13:38;96071.44;;;1.32;100.00
11621;BME280;5866;49.094;11.900;2022-12-07T06:16:12;96088.47;;;1.38;100.00
11621;BME280;5866;49.094;11.900;2022-12-07T06:18:40;96071.16;;;1.48;100.00
11621;BME280;5866;49.094;11.900;2022-12-07T06:21:07;96074.84;;;1.69;100.00
11621;BME280;5866;49.094;11.900;2022-12-07T06:23:35;96068.28;;;1.40;100.00
11621;BME280;5866;49.094;11.900;2022-12-07T06:26:02;96082.00;;;1.31;100.00
11621;BME280;5866;49.094;11.900;2022-12-07T06:28:30;96080.66;;;1.25;100.00
11621;BME280;5866;49.094;11.900;2022-12-07T06:30:59;96083.72;;;1.19;100.00
11621;BME280;5866;49.094;11.900;2022-12-07T06:33:28;96076.84;;;1.42;100.00
11621;BME280;5866;49.094;11.900;2022-12-07T06:35:56;96066.94;;;1.58;100.00
11621;BME280;5866;49.094;11.900;2022-12-07T06:38:23;96071.84;;;1.63;100.00
11621;BME280;5866;49.094;11.900;2022-12-07T06:40:51;96063.44;;;1.46;100.00
11621;BME280;5866;49.094;11.900;2022-12-07T06:43:18;96071.09;;;1.37;100.00
11621;BME280;5866;49.094;11.900;2022-12-07T06:45:46;96081.91;;;1.20;100.00
11621;BME280;5866;49.094;11.900;2022-12-07T06:48:15;96084.78;;;1.40;100.00
11621;BME280;5866;49.094;11.900;2022-12-07T06:50:44;96072.28;;;1.56;100.00
11621;BME280;5866;49.094;11.900;2022-12-07T06:53:19;96083.56;;;1.81;100.00
11621;BME280;5866;49.094;11.900;2022-12-07T06:55:47;96083.16;;;1.74;100.00
11621;BME280;5866;49.094;11.900;2022-12-07T06:58:14;96075.59;;;2.17;100.00
11621;BME280;5866;49.094;11.900;2022-12-07T07:00:42;96069.50;;;2.05;100.00
11621;BME280;5866;49.094;11.900;2022-12-07T07:03:10;96075.31;;;2.55;100.00
11621;BME280;5866;49.094;11.900;2022-12-07T07:05:39;96069.63;;;2.83;100.00
11621;BME280;5866;49.094;11.900;2022-12-07T07:08:07;96070.47;;;2.83;100.00
11621;BME280;5866;49.094;11.900;2022-12-07T07:10:50;96055.44;;;2.85;100.00
11621;BME280;5866;49.094;11.900;2022-12-07T07:13:17;96048.81;;;2.59;100.00
11621;BME280;5866;49.094;11.900;2022-12-07T07:15:45;96059.03;;;2.73;100.00
11621;BME280;5866;49.094;11.900;2022-12-07T07:18:13;96060.13;;;2.14;100.00
11621;BME280;5866;49.094;11.900;2022-12-07T07:20:41;96058.91;;;2.53;100.00
11621;BME280;5866;49.094;11.900;2022-12-07T07:23:09;96049.63;;;2.71;100.00
11621;BME280;5866;49.094;11.900;2022-12-07T07:25:37;96053.44;;;1.99;100.00
11621;BME280;5866;49.094;11.900;2022-12-07T07:28:05;96053.34;;;1.77;100.00
11621;BME280;5866;49.094;11.900;2022-12-07T07:30:32;96060.22;;;2.01;100.00
11621;BME280;5866;49.094;11.900;2022-12-07T07:33:01;96058.78;;;1.97;100.00
11621;BME280;5866;49.094;11.900;2022-12-07T07:35:30;96055.84;;;1.78;100.00
11621;BME280;5866;49.094;11.900;2022-12-07T07:38:00;96066.38;;;1.42;100.00
11621;BME280;5866;49.094;11.900;2022-12-07T07:40:28;96081.56;;;1.60;100.00
11621;BME280;5866;49.094;11.900;2022-12-07T07:42:56;96073.22;;;1.55;100.00
11621;BME280;5866;49.094;11.900;2022-12-07T07:45:25;96071.22;;;1.59;100.00
11621;BME280;5866;49.094;11.900;2022-12-07T07:47:53;96071.59;;;1.89;100.00
11621;BME280;5866;49.094;11.900;2022-12-07T07:50:21;96078.38;;;1.68;100.00
11621;BME280;5866;49.094;11.900;2022-12-07T07:52:49;96074.66;;;1.59;100.00
11621;BME280;5866;49.094;11.900;2022-12-07T07:55:18;96083.09;;;1.87;100.00
11621;BME280;5866;49.094;11.900;2022-12-07T07:57:46;96081.97;;;1.67;100.00
11621;BME280;5866;49.094;11.900;2022-12-07T08:00:21;96074.66;;;1.59;100.00
11621;BME280;5866;49.094;11.900;2022-12-07T08:02:49;96084.59;;;1.78;100.00
11621;BME280;5866;49.094;11.900;2022-12-07T08:05:16;96076.28;;;1.73;100.00
11621;BME280;5866;49.094;11.900;2022-12-07T08:07:44;96091.69;;;1.65;100.00
11621;BME280;5866;49.094;11.900;2022-12-07T08:10:13;96088.78;;;1.81;100.00
11621;BME280;5866;49.094;11.900;2022-12-07T08:12:43;96092.88;;;1.96;100.00
11621;BME280;5866;49.094;11.900;2022-12-07T08:15:29;96095.06;;;1.78;100.00
11621;BME280;5866;49.094;11.900;2022-12-07T08:17:58;96103.41;;;1.83;100.00
11621;BME280;5866;49.094;11.900;2022-12-07T08:20:26;96102.19;;;1.76;100.00
11621;BME280;5866;49.094;11.900;2022-12-07T08:22:53;96101.25;;;1.77;100.00
11621;BME280;5866;49.094;11.900;2022-12-07T08:25:21;96100.63;;;1.97;100.00
11621;BME280;5866;49.094;11.900;2022-12-07T08:27:51;96095.69;;;1.82;100.00
11621;BME280;5866;49.094;11.900;2022-12-07T08:30:19;96105.09;;;1.84;100.00
11621;BME280;5866;49.094;11.900;2022-12-07T08:32:47;96108.84;;;1.80;100.00
11621;BME280;5866;49.094;11.900;2022-12-07T08:35:16;96104.25;;;1.84;100.00
11621;BME280;5866;49.094;11.900;2022-12-07T08:37:43;96104.25;;;2.07;100.00
11621;BME280;5866;49.094;11.900;2022-12-07T08:40:12;96110.28;;;2.08;100.00
11621;BME280;5866;49.094;11.900;2022-12-07T08:42:41;96106.94;;;1.95;100.00
11621;BME280;5866;49.094;11.900;2022-12-07T08:45:13;96105.50;;;2.02;100.00
11621;BME280;5866;49.094;11.900;2022-12-07T08:47:44;96102.50;;;1.95;100.00
11621;BME280;5866;49.094;11.900;2022-12-07T08:50:13;96109.88;;;1.90;100.00
11621;BME280;5866;49.094;11.900;2022-12-07T08:52:41;96109.75;;;1.92;100.00
11621;BME280;5866;49.094;11.900;2022-12-07T08:55:10;96113.31;;;1.91;100.00
11621;BME280;5866;49.094;11.900;2022-12-07T08:57:39;96125.19;;;2.07;100.00
11621;BME280;5866;49.094;11.900;2022-12-07T09:00:07;96119.25;;;2.16;100.00
11621;BME280;5866;49.094;11.900;2022-12-07T09:02:37;96112.81;;;2.20;100.00
11621;BME280;5866;49.094;11.900;2022-12-07T09:05:05;96115.19;;;2.12;100.00
11621;BME280;5866;49.094;11.900;2022-12-07T09:07:40;96121.41;;;2.22;100.00
11621;BME280;5866;49.094;11.900;2022-12-07T09:10:10;96120.03;;;2.40;100.00
11621;BME280;5866;49.094;11.900;2022-12-07T09:12:37;96113.19;;;2.62;100.00
11621;BME280;5866;49.094;11.900;2022-12-07T09:15:07;96124.16;;;2.78;100.00
11621;BME280;5866;49.094;11.900;2022-12-07T09:17:35;96118.94;;;2.89;100.00
11621;BME280;5866;49.094;11.900;2022-12-07T09:20:06;96125.13;;;2.99;100.00
11621;BME280;5866;49.094;11.900;2022-12-07T09:22:34;96122.50;;;2.99;100.00
11621;BME280;5866;49.094;11.900;2022-12-07T09:25:02;96121.78;;;2.86;100.00
11621;BME280;5866;49.094;11.900;2022-12-07T09:27:30;96121.91;;;3.17;100.00
11621;BME280;5866;49.094;11.900;2022-12-07T09:29:58;96111.16;;;3.20;100.00
11621;BME280;5866;49.094;11.900;2022-12-07T09:32:26;96110.16;;;3.66;100.00
11621;BME280;5866;49.094;11.900;2022-12-07T09:34:54;96103.13;;;3.66;100.00
11621;BME280;5866;49.094;11.900;2022-12-07T09:37:23;96105.06;;;3.64;100.00
11621;BME280;5866;49.094;11.900;2022-12-07T09:39:50;96101.09;;;3.70;100.00
11621;BME280;5866;49.094;11.900;2022-12-07T09:42:27;96108.31;;;3.35;100.00
11621;BME280;5866;49.094;11.900;2022-12-07T09:44:56;96111.53;;;3.27;100.00
11621;BME280;5866;49.094;11.900;2022-12-07T09:47:25;96106.75;;;3.43;100.00
11621;BME280;5866;49.094;11.900;2022-12-07T09:49:55;96106.75;;;3.43;100.00
11621;BME280;5866;49.094;11.900;2022-12-07T09:52:29;96108.44;;;3.22;100.00
11621;BME280;5866;49.094;11.900;2022-12-07T09:55:10;96109.84;;;3.48;100.00
11621;BME280;5866;49.094;11.900;2022-12-07T09:57:39;96105.28;;;3.61;100.00
11621;BME280;5866;49.094;11.900;2022-12-07T10:00:14;96100.03;;;3.61;100.00
11621;BME280;5866;49.094;11.900;2022-12-07T10:02:43;96100.06;;;4.25;100.00
11621;BME280;5866;49.094;11.900;2022-12-07T10:05:14;96094.53;;;4.90;100.00
11621;BME280;5866;49.094;11.900;2022-12-07T10:07:51;96090.56;;;4.74;100.00
11621;BME280;5866;49.094;11.900;2022-12-07T10:10:23;96086.03;;;4.56;100.00
11621;BME280;5866;49.094;11.900;2022-12-07T10:12:57;96084.13;;;4.88;100.00
11621;BME280;5866;49.094;11.900;2022-12-07T10:15:41;96081.16;;;4.51;100.00
11621;BME280;5866;49.094;11.900;2022-12-07T10:18:18;96072.41;;;4.21;100.00
11621;BME280;5866;49.094;11.900;2022-12-07T10:20:47;96073.31;;;3.99;100.00
11621;BME280;5866;49.094;11.900;2022-12-07T10:23:17;96078.06;;;3.73;100.00
11621;BME280;5866;49.094;11.900;2022-12-07T10:25:45;96065.47;;;4.20;100.00
11621;BME280;5866;49.094;11.900;2022-12-07T10:28:16;96066.69;;;4.77;100.00
11621;BME280;5866;49.094;11.900;2022-12-07T10:30:52;96061.41;;;4.57;100.00
11621;BME280;5866;49.094;11.900;2022-12-07T10:33:37;96058.72;;;4.68;100.00
11621;BME280;5866;49.094;11.900;2022-12-07T10:36:17;96048.03;;;5.20;100.00
11621;BME280;5866;49.094;11.900;2022-12-07T10:38:49;96058.63;;;5.09;100.00
11621;BME280;5866;49.094;11.900;2022-12-07T10:41:17;96055.44;;;4.04;100.00
11621;BME280;5866;49.094;11.900;2022-12-07T10:43:53;96058.66;;;4.38;100.00
11621;BME280;5866;49.094;11.900;2022-12-07T10:46:45;96051.03;;;5.06;100.00
11621;BME280;5866;49.094;11.900;2022-12-07T10:52:36;96047.56;;;5.74;100.00
11621;BME280;5866;49.094;11.900;2022-12-07T10:55:16;96043.97;;;5.65;100.00
11621;BME280;5866;49.094;11.900;2022-12-07T10:58:05;96035.16;;;5.86;100.00
11621;BME280;5866;49.094;11.900;2022-12-07T11:00:41;96043.25;;;4.44;100.00
11621;BME280;5866;49.094;11.900;2022-12-07T11:03:27;96037.66;;;5.28;100.00
11621;BME280;5866;49.094;11.900;2022-12-07T11:06:06;96036.03;;;4.97;100.00
11621;BME280;5866;49.094;11.900;2022-12-07T11:08:47;96033.06;;;5.80;100.00
11621;BME280;5866;49.094;11.900;2022-12-07T11:11:23;96027.59;;;5.43;100.00
11621;BME280;5866;49.094;11.900;2022-12-07T11:13:59;96028.59;;;5.71;100.00
11621;BME280;5866;49.094;11.900;2022-12-07T11:16:38;96019.88;;;5.60;100.00
11621;BME280;5866;49.094;11.900;2022-12-07T11:19:24;96016.22;;;5.23;100.00
11621;BME280;5866;49.094;11.900;2022-12-07T11:21:57;96022.94;;;4.67;100.00
11621;BME280;5866;49.094;11.900;2022-12-07T11:24:31;96019.28;;;4.58;100.00
11621;BME280;5866;49.094;11.900;2022-12-07T11:27:09;96023.16;;;4.54;100.00
11621;BME280;5866;49.094;11.900;2022-12-07T11:29:47;96021.06;;;4.58;100.00
11621;BME280;5866;49.094;11.900;2022-12-07T11:32:21;96024.22;;;4.52;100.00
11621;BME280;5866;49.094;11.900;2022-12-07T11:34:58;96010.72;;;3.94;100.00
11621;BME280;5866;49.094;11.900;2022-12-07T11:37:32;96012.97;;;4.20;100.00
11621;BME280;5866;49.094;11.900;2022-12-07T11:40:14;96012.69;;;3.81;100.00
11621;BME280;5866;49.094;11.900;2022-12-07T11:42:50;96015.44;;;3.80;100.00
11621;BME280;5866;49.094;11.900;2022-12-07T11:45:23;96004.53;;;3.95;100.00
11621;BME280;5866;49.094;11.900;2022-12-07T11:47:56;96009.13;;;4.03;100.00
11621;BME280;5866;49.094;11.900;2022-12-07T11:50:32;96009.47;;;3.57;100.00
11621;BME280;5866;49.094;11.900;2022-12-07T11:53:04;96007.03;;;3.65;100.00
11621;BME280;5866;49.094;11.900;2022-12-07T11:55:41;96011.75;;;3.82;100.00
11621;BME280;5866;49.094;11.900;2022-12-07T11:58:22;96010.19;;;3.48;100.00
11621;BME280;5866;49.094;11.900;2022-12-07T12:00:52;96010.88;;;3.61;100.00
11621;BME280;5866;49.094;11.900;2022-12-07T12:03:25;96010.94;;;3.71;100.00
11621;BME280;5866;49.094;11.900;2022-12-07T12:05:56;96001.72;;;3.56;100.00
11621;BME280;5866;49.094;11.900;2022-12-07T12:08:27;96010.66;;;3.53;100.00
11621;BME280;5866;49.094;11.900;2022-12-07T12:11:30;96005.00;;;3.69;100.00
11621;BME280;5866;49.094;11.900;2022-12-07T12:14:21;96001.22;;;3.30;100.00
11621;BME280;5866;49.094;11.900;2022-12-07T12:17:13;96004.72;;;3.08;100.00
11621;BME280;5866;49.094;11.900;2022-12-07T12:19:58;96008.91;;;3.43;100.00
11621;BME280;5866;49.094;11.900;2022-12-07T12:22:34;95999.16;;;3.34;100.00
11621;BME280;5866;49.094;11.900;2022-12-07T12:25:05;95997.38;;;3.34;100.00
11621;BME280;5866;49.094;11.900;2022-12-07T12:27:36;95989.16;;;3.39;100.00
11621;BME280;5866;49.094;11.900;2022-12-07T12:30:24;96000.56;;;3.49;100.00
11621;BME280;5866;49.094;11.900;2022-12-07T12:33:01;95992.75;;;3.58;100.00
11621;BME280;5866;49.094;11.900;2022-12-07T12:35:31;95987.41;;;3.28;100.00
11621;BME280;5866;49.094;11.900;2022-12-07T12:38:26;95995.94;;;3.41;100.00
11621;BME280;5866;49.094;11.900;2022-12-07T12:40:54;95993.63;;;3.16;100.00
11621;BME280;5866;49.094;11.900;2022-12-07T12:43:48;95993.31;;;3.41;100.00
11621;BME280;5866;49.094;11.900;2022-12-07T12:46:45;95999.88;;;3.36;100.00
11621;BME280;5866;49.094;11.900;2022-12-07T12:49:33;95999.72;;;3.48;100.00
11621;BME280;5866;49.094;11.900;2022-12-07T12:55:19;95988.22;;;3.60;100.00
11621;BME280;5866;49.094;11.900;2022-12-07T13:03:57;95970.56;;;5.34;100.00
11621;BME280;5866;49.094;11.900;2022-12-07T13:06:35;95969.22;;;5.78;100.00
11621;BME280;5866;49.094;11.900;2022-12-07T13:09:15;95965.81;;;5.18;100.00
11621;BME280;5866;49.094;11.900;2022-12-07T13:11:45;95963.34;;;5.26;100.00
11621;BME280;5866;49.094;11.900;2022-12-07T13:14:42;95970.19;;;4.99;100.00
11621;BME280;5866;49.094;11.900;2022-12-07T13:17:11;95966.66;;;4.69;100.00
11621;BME280;5866;49.094;11.900;2022-12-07T13:19:58;95969.91;;;4.01;100.00
11621;BME280;5866;49.094;11.900;2022-12-07T13:22:40;95965.94;;;4.07;100.00
11621;BME280;5866;49.094;11.900;2022-12-07T13:25:12;95970.34;;;3.86;100.00
11621;BME280;5866;49.094;11.900;2022-12-07T13:27:50;95970.84;;;4.00;100.00
11621;BME280;5866;49.094;11.900;2022-12-07T13:30:21;95970.56;;;4.45;100.00
11621;BME280;5866;49.094;11.900;2022-12-07T13:32:52;95970.91;;;4.61;100.00
11621;BME280;5866;49.094;11.900;2022-12-07T13:35:30;95962.66;;;5.15;100.00
11621;BME280;5866;49.094;11.900;2022-12-07T13:37:58;95956.84;;;5.21;100.00
11621;BME280;5866;49.094;11.900;2022-12-07T13:40:26;95956.47;;;5.44;100.00
11621;BME280;5866;49.094;11.900;2022-12-07T13:42:58;95963.09;;;4.80;100.00